^^
Station Historical Data
Daily Summary for August 1, 2017 Units:  Metric    English   Both
« Previous Day
Next Day »
Daily Weekly Monthly Yearly Custom
  High: Low: Average:
Temperature: 24.1 °C 9.1 °C 14.4 °C
Dew Point: 7.8 °C 0.5 °C 5.2 °C
Humidity: 86% 24% 58%
Wind Speed: 19.5km/h 0km/h 6km/h
Wind Gust: 24.1km/h - -
Wind- - WSW
Pressure: 1019.9 hPa 1014.1 hPa -
Precipitation: 0 mm    
Historical Graphs
 
 
Tabular Data for August 1, 2017
Time Temperature Dew Point Pressure Wind Wind Speed Wind Gust Humidity Rainfall Rate (Hourly) solar Conditions
00:01 18.4 °C 1.8 °C 1014.1 hPa Calm     33% 0 mm 0.0 W/m2
00:06 18.4 °C 1.8 °C 1014.1 hPa Calm     33% 0 mm 0.0 W/m2
00:12 18.3 °C 1.7 °C 1014.1 hPa Calm     33% 0 mm 0.0 W/m2
00:17 18.2 °C 1.7 °C 1014.1 hPa Calm     33% 0 mm 0.0 W/m2
00:22 17.9 °C 1 °C 1014.1 hPa Calm     32% 0 mm 0.0 W/m2
00:28 16.9 °C 0.9 °C 1014.1 hPa Calm     34% 0 mm 0.0 W/m2
00:33 16.1 °C 0.6 °C 1014.4 hPa Calm     35% 0 mm 0.0 W/m2
00:38 15.3 °C 0.7 °C 1014.1 hPa Calm     37% 0 mm 0.0 W/m2
00:43 14.8 °C 0.6 °C 1014.1 hPa Calm     38% 0 mm 0.0 W/m2
00:48 14.6 °C 0.8 °C 1014.1 hPa Calm     39% 0 mm 0.0 W/m2
00:53 14.6 °C 1.1 °C 1014.1 hPa Calm     40% 0 mm 0.0 W/m2
00:58 14.4 °C 1 °C 1014.1 hPa Calm     40% 0 mm 0.0 W/m2
01:04 14.3 °C 0.9 °C 1014.1 hPa Calm     40% 0 mm 0.0 W/m2
01:09 14.2 °C 1.1 °C 1014.1 hPa Calm     41% 0 mm 0.0 W/m2
01:19 14.5 °C 1.4 °C 1014.1 hPa Calm     41% 0 mm 0.0 W/m2
01:24 14.6 °C 0.8 °C 1014.1 hPa Calm     39% 0 mm 0.0 W/m2
01:30 14.3 °C 0.5 °C 1014.1 hPa Calm     39% 0 mm 0.0 W/m2
01:35 14 °C 0.6 °C 1014.1 hPa Calm     40% 0 mm 0.0 W/m2
01:40 13.8 °C 1.1 °C 1014.1 hPa Calm     42% 0 mm 0.0 W/m2
01:45 13.6 °C 1.9 °C 1014.1 hPa Calm     45% 0 mm 0.0 W/m2
01:51 13.6 °C 0.9 °C 1014.4 hPa Calm     42% 0 mm 0.0 W/m2
01:56 13.6 °C 2.8 °C 1014.4 hPa Calm     48% 0 mm 0.0 W/m2
02:01 13.6 °C 3.7 °C 1014.4 hPa Calm     51% 0 mm 0.0 W/m2
02:06 13.6 °C 3.9 °C 1014.4 hPa Calm     52% 0 mm 0.0 W/m2
02:11 13.4 °C 4.8 °C 1014.4 hPa Calm     56% 0 mm 0.0 W/m2
02:16 13.2 °C 5.6 °C 1014.4 hPa Calm     60% 0 mm 0.0 W/m2
02:21 13 °C 6.1 °C 1014.4 hPa Calm     63% 0 mm 0.0 W/m2
02:26 12.8 °C 6.2 °C 1014.4 hPa Calm     64% 0 mm 0.0 W/m2
02:36 12.2 °C 4.9 °C 1014.4 hPa Calm     61% 0 mm 0.0 W/m2
02:41 12 °C 5.8 °C 1014.4 hPa Calm     66% 0 mm 0.0 W/m2
02:47 12 °C 6.1 °C 1014.4 hPa Calm     67% 0 mm 0.0 W/m2
02:52 11.9 °C 5.5 °C 1014.4 hPa Calm     65% 0 mm 0.0 W/m2
02:57 11.7 °C 4.9 °C 1014.4 hPa Calm     63% 0 mm 0.0 W/m2
03:02 11.5 °C 4.9 °C 1014.4 hPa Calm     64% 0 mm 0.0 W/m2
03:07 11.2 °C 4.9 °C 1014.4 hPa Calm     65% 0 mm 0.0 W/m2
03:12 10.9 °C 4.6 °C 1014.4 hPa Calm     65% 0 mm 0.0 W/m2
03:17 10.7 °C 4.6 °C 1014.4 hPa Calm     66% 0 mm 0.0 W/m2
03:22 10.4 °C 4.3 °C 1014.8 hPa Calm     66% 0 mm 0.0 W/m2
03:28 10.3 °C 4.7 °C 1014.8 hPa Calm     68% 0 mm 0.0 W/m2
03:33 10.2 °C 5.2 °C 1014.8 hPa Calm     71% 0 mm 0.0 W/m2
03:38 10.4 °C 6.2 °C 1014.8 hPa Calm     75% 0 mm 0.0 W/m2
03:43 10.9 °C 6.6 °C 1014.8 hPa Calm     75% 0 mm 0.0 W/m2
03:48 11.3 °C 7 °C 1015.1 hPa Calm     75% 0 mm 0.0 W/m2
03:53 11.5 °C 7.2 °C 1015.1 hPa WNW 17.7 km/h 17.7 km/h 75% 0 mm 0.0 W/m2
04:03 11.3 °C 7 °C 1015.1 hPa West 7.9 km/h 11.3 km/h 75% 0 mm 0.0 W/m2
04:08 11.2 °C 7.3 °C 1015.1 hPa West 6.4 km/h 9.7 km/h 77% 0 mm 0.0 W/m2
04:13 11.1 °C 7 °C 1015.1 hPa West 7.9 km/h 9.7 km/h 76% 0 mm 0.0 W/m2
04:19 10.9 °C 7 °C 1015.1 hPa West 6.4 km/h 9.7 km/h 77% 0 mm 0.0 W/m2
04:24 10.8 °C 6.9 °C 1015.1 hPa West 4.7 km/h 6.4 km/h 77% 0 mm 0.0 W/m2
04:29 10.7 °C 7 °C 1015.1 hPa West 4.7 km/h 8 km/h 78% 0 mm 0.0 W/m2
04:34 10.5 °C 7 °C 1015.1 hPa West 6.4 km/h 8 km/h 79% 0 mm 0.0 W/m2
04:39 10.5 °C 7.2 °C 1015.5 hPa West 7.9 km/h 11.3 km/h 80% 0 mm 0.0 W/m2
04:44 10.4 °C 7.3 °C 1015.5 hPa West 13 km/h 17.7 km/h 81% 0 mm 0.0 W/m2
04:54 10.4 °C 7.5 °C 1015.8 hPa West 13 km/h 13 km/h 82% 0 mm 0.0 W/m2
05:00 10.4 °C 7.3 °C 1015.8 hPa West 9.7 km/h 11.3 km/h 81% 0 mm 0.0 W/m2
05:05 10.3 °C 7.2 °C 1015.8 hPa West 6.4 km/h 8 km/h 81% 0 mm 0.0 W/m2
05:10 10.2 °C 7.3 °C 1016.1 hPa West 9.7 km/h 9.7 km/h 82% 0 mm 0.0 W/m2
05:15 10.3 °C 7.5 °C 1016.1 hPa West 11.1 km/h 11.3 km/h 83% 0 mm 0.0 W/m2
05:20 10.3 °C 7.5 °C 1016.1 hPa West 9.7 km/h 11.3 km/h 83% 0 mm 0.0 W/m2
05:25 10.2 °C 7.4 °C 1016.1 hPa West 7.9 km/h 11.3 km/h 83% 0 mm 0.0 W/m2
05:31 10.1 °C 7.2 °C 1016.1 hPa West 7.9 km/h 9.7 km/h 82% 0 mm 0.0 W/m2
05:36 10 °C 7.2 °C 1016.5 hPa West 7.9 km/h 9.7 km/h 83% 0 mm 0.0 W/m2
05:41 9.9 °C 7.1 °C 1016.5 hPa West 7.9 km/h 12.9 km/h 83% 0 mm 0.0 W/m2
05:46 9.8 °C 7.1 °C 1016.5 hPa West 7.9 km/h 11.3 km/h 83% 0 mm 0.0 W/m2
05:51 9.7 °C 7.1 °C 1016.8 hPa West 4.7 km/h 8 km/h 84% 0 mm 0.0 W/m2
05:56 9.7 °C 7.1 °C 1016.5 hPa West 6.4 km/h 6.4 km/h 84% 0 mm 0.0 W/m2
06:01 9.5 °C 6.8 °C 1016.5 hPa West 7.9 km/h 8 km/h 83% 0 mm 0.0 W/m2
06:06 9.3 °C 6.7 °C 1016.5 hPa West 7.9 km/h 9.7 km/h 84% 0 mm 0.0 W/m2
06:11 9.2 °C 6.6 °C 1016.8 hPa West 4.7 km/h 8 km/h 84% 0 mm 0.0 W/m2
06:16 9.1 °C 6.7 °C 1016.8 hPa West 6.4 km/h 9.7 km/h 85% 0 mm 0.0 W/m2
06:21 9.2 °C 7 °C 1016.8 hPa West 9.7 km/h 11.3 km/h 86% 0 mm 0.0 W/m2
06:26 9.4 °C 7.2 °C 1017.2 hPa West 9.7 km/h 12.9 km/h 86% 0 mm 5.0 W/m2
06:31 9.6 °C 7.2 °C 1017.2 hPa West 16.3 km/h 17.7 km/h 85% 0 mm 5.0 W/m2
06:36 9.7 °C 7.3 °C 1017.2 hPa West 17.7 km/h 17.7 km/h 85% 0 mm 7.0 W/m2
06:41 9.8 °C 7.4 °C 1017.2 hPa West 13 km/h 16.1 km/h 85% 0 mm 14.0 W/m2
06:46 9.8 °C 7.4 °C 1017.2 hPa West 7.9 km/h 16.1 km/h 85% 0 mm 23.0 W/m2
06:56 9.9 °C 7.5 °C 1017.5 hPa West 11.1 km/h 14.5 km/h 85% 0 mm 35.0 W/m2
07:06 10 °C 7.6 °C 1017.8 hPa West 7.9 km/h 17.7 km/h 85% 0 mm 44.0 W/m2
07:11 10.1 °C 7.7 °C 1017.8 hPa WSW 13 km/h 14.5 km/h 85% 0 mm 54.0 W/m2
07:17 10.2 °C 7.6 °C 1017.8 hPa WSW 17.7 km/h 17.7 km/h 84% 0 mm 63.0 W/m2
07:22 10.3 °C 7.7 °C 1017.8 hPa WSW 14.3 km/h 16.1 km/h 84% 0 mm 70.0 W/m2
07:27 10.4 °C 7.8 °C 1017.8 hPa WSW 14.3 km/h 17.7 km/h 84% 0 mm 93.0 W/m2
07:41 10.4 °C 7.8 °C 1017.8 hPa WSW 11.1 km/h 14.5 km/h 84% 0 mm 135.0 W/m2
07:57 11.3 °C 7.6 °C 1018.5 hPa WSW 13 km/h 17.7 km/h 78% 0 mm 134.0 W/m2
08:03 11.6 °C 7.7 °C 1018.5 hPa WSW 11.1 km/h 12.9 km/h 77% 0 mm 186.0 W/m2
08:33 13.6 °C 7.6 °C 1018.8 hPa SW 11.1 km/h 20.9 km/h 67% 0 mm 309.0 W/m2
08:39 13.6 °C 7.6 °C 1018.8 hPa SW 17.7 km/h 20.9 km/h 67% 0 mm 267.0 W/m2
08:44 13.7 °C 7.5 °C 1019.2 hPa SW 19.5 km/h 24.1 km/h 66% 0 mm 330.0 W/m2
08:59 14.1 °C 7.6 °C 1019.2 hPa SW 11.1 km/h 17.7 km/h 65% 0 mm 385.0 W/m2
09:31 14.6 °C 7.4 °C 1019.2 hPa SSW 19.5 km/h 20.9 km/h 62% 0 mm 450.0 W/m2
09:39 14.8 °C 7.6 °C 1019.5 hPa SSW 16.3 km/h 19.3 km/h 62% 0 mm 485.0 W/m2
09:49 15 °C 7.5 °C 1019.2 hPa SSW 11.1 km/h 12.9 km/h 61% 0 mm 483.0 W/m2
09:54 14.9 °C 7.4 °C 1019.2 hPa SSW 13 km/h 13 km/h 61% 0 mm 450.0 W/m2
10:05 15.3 °C 7.6 °C 1019.2 hPa SSW 13 km/h 14.5 km/h 60% 0 mm 371.0 W/m2
10:11 15.6 °C 7.6 °C 1019.2 hPa SSW 9.7 km/h 12.9 km/h 59% 0 mm 520.0 W/m2
10:17 15.8 °C 7.6 °C 1018.8 hPa SSW 9.7 km/h 14.5 km/h 58% 0 mm 536.0 W/m2
10:24 16.2 °C 7.4 °C 1018.8 hPa Calm     56% 0 mm 550.0 W/m2
10:39 17.2 °C 7.3 °C 1018.5 hPa Calm     52% 0 mm 563.0 W/m2
10:54 17.9 °C 7 °C 1018.5 hPa Calm     49% 0 mm 580.0 W/m2
11:04 18.8 °C 6.9 °C 1017.8 hPa Calm   1.6 km/h 46% 0 mm 599.0 W/m2
11:10 19.6 °C 6 °C 1017.8 hPa Calm     41% 0 mm 608.0 W/m2
11:31 20.6 °C 5.8 °C 1017.8 hPa Calm     38% 0 mm 594.0 W/m2
11:44 20.8 °C 5.6 °C 1017.5 hPa Calm     37% 0 mm 615.0 W/m2
11:54 21 °C 5.4 °C 1017.5 hPa Calm     36% 0 mm 622.0 W/m2
12:04 21.2 °C 5.5 °C 1017.5 hPa Calm     36% 0 mm 599.0 W/m2
12:12 21 °C 6.5 °C 1017.2 hPa SSW 6.4 km/h 9.7 km/h 39% 0 mm 592.0 W/m2
14:33 23.4 °C 2.8 °C 1016.1 hPa WSW 13 km/h 14.5 km/h 26% 0 mm 464.0 W/m2
14:43 23.6 °C 3 °C 1016.1 hPa Calm     26% 0 mm 445.0 W/m2
14:54 23.8 °C 3.1 °C 1016.1 hPa Calm     26% 0 mm 383.0 W/m2
15:08 24.1 °C 2.8 °C 1016.1 hPa Calm     25% 0 mm 392.0 W/m2
15:15 23.8 °C 3.1 °C 1016.1 hPa Calm     26% 0 mm 348.0 W/m2
15:28 24.1 °C 2.8 °C 1016.1 hPa Calm     25% 0 mm 272.0 W/m2
15:36 23.9 °C 2.7 °C 1016.1 hPa Calm     25% 0 mm 288.0 W/m2
16:41 24 °C 2.2 °C 1016.1 hPa Calm     24% 0 mm 67.0 W/m2
16:49 22.9 °C 4.4 °C 1016.5 hPa SW 16.3 km/h 19.3 km/h 30% 0 mm 44.0 W/m2
16:57 21.9 °C 4.9 °C 1016.8 hPa SW 11.1 km/h 19.3 km/h 33% 0 mm 25.0 W/m2
17:03 21.6 °C 5.1 °C 1016.8 hPa SW 14.3 km/h 16.1 km/h 34% 0 mm 18.0 W/m2
17:09 21.2 °C 4.7 °C 1016.8 hPa SW 16.3 km/h 17.7 km/h 34% 0 mm 12.0 W/m2
17:18 20.8 °C 4.8 °C 1017.2 hPa SW 11.1 km/h 14.5 km/h 35% 0 mm 5.0 W/m2
17:23 20.4 °C 4.8 °C 1017.2 hPa SW 11.1 km/h 16.1 km/h 36% 0 mm 0.0 W/m2
17:32 20 °C 5.2 °C 1017.2 hPa SW 11.1 km/h 14.5 km/h 38% 0 mm 0.0 W/m2
17:39 19.8 °C 5.1 °C 1017.5 hPa SW 14.3 km/h 20.9 km/h 38% 0 mm 0.0 W/m2
17:48 19.6 °C 5.3 °C 1017.5 hPa SW 11.1 km/h 16.1 km/h 39% 0 mm 0.0 W/m2
17:53 19.4 °C 5.1 °C 1017.5 hPa SW 14.3 km/h 19.3 km/h 39% 0 mm 0.0 W/m2
17:59 19.3 °C 5.4 °C 1017.5 hPa SW 16.3 km/h 16.3 km/h 40% 0 mm 0.0 W/m2
18:33 18.2 °C 5.4 °C 1017.8 hPa SW 17.7 km/h 19.3 km/h 43% 0 mm 0.0 W/m2
19:03 17.5 °C 5.1 °C 1018.2 hPa SW 7.9 km/h 16.1 km/h 44% 0 mm 0.0 W/m2
19:13 17.1 °C 4.7 °C 1018.5 hPa SW 13 km/h 13 km/h 44% 0 mm 0.0 W/m2
19:33 16.5 °C 4.5 °C 1018.8 hPa SW 11.1 km/h 12.9 km/h 45% 0 mm 0.0 W/m2
19:48 16.4 °C 4.4 °C 1018.8 hPa SW 7.9 km/h 12.9 km/h 45% 0 mm 0.0 W/m2
19:58 15.6 °C 4.3 °C 1018.8 hPa SW 7.9 km/h 9.7 km/h 47% 0 mm 0.0 W/m2
20:13 15.3 °C 4.4 °C 1019.2 hPa SW 9.7 km/h 11.3 km/h 48% 0 mm 0.0 W/m2
20:19 15.1 °C 4.5 °C 1019.2 hPa SW 7.9 km/h 9.7 km/h 49% 0 mm 0.0 W/m2
20:29 14.9 °C 4.3 °C 1019.5 hPa SW 6.4 km/h 8 km/h 49% 0 mm 0.0 W/m2
20:44 14.6 °C 4 °C 1019.5 hPa SW 7.9 km/h 9.7 km/h 49% 0 mm 0.0 W/m2
20:51 14.6 °C 4 °C 1019.5 hPa SW 7.9 km/h 9.7 km/h 49% 0 mm 0.0 W/m2
21:06 14.1 °C 3.8 °C 1019.5 hPa SW 4.7 km/h 6.4 km/h 50% 0 mm 0.0 W/m2
21:15 13.6 °C 3.9 °C 1019.5 hPa SW 7.9 km/h 8 km/h 52% 0 mm 0.0 W/m2
21:19 13.6 °C 3.9 °C 1019.5 hPa SW 7.9 km/h 8 km/h 52% 0 mm 0.0 W/m2
21:29 13.7 °C 3.7 °C 1019.5 hPa SW 6.4 km/h 8 km/h 51% 0 mm 0.0 W/m2
21:41 13.6 °C 3.7 °C 1019.5 hPa SW 4.7 km/h 9.7 km/h 51% 0 mm 0.0 W/m2
21:54 13.4 °C 4 °C 1019.9 hPa Calm     53% 0 mm 0.0 W/m2
22:02 13.2 °C 4.6 °C 1019.9 hPa Calm     56% 0 mm 0.0 W/m2
22:08 13.2 °C 4.9 °C 1019.9 hPa Calm     57% 0 mm 0.0 W/m2
Canyon Roadhouse, Fishriver Canyon, Namibia
Compliments of Weather Underground - 2.5 mb